University Park, Florida
Current Conditions -  °F | °C
As of 9:53 PM on Friday 21 Nov 2014 (Local Time) from KSRQ Reporting Station
Overcast Overcast  
Wind Chill: 66°   Ceiling: 6500
Heat Index: 66°   Visibility: 10mi
Dew Point: 56°   Wind: 15mph
Humidity: 70%   Direction: 60°ENE
Pressure: 30.22"   Gusts: NA
Location:  27.3998°N, 82.4742°W
Report Text: KSRQ 220253Z 06013KT 10SM OVC065 19/13 A3022 RMK AO2 SLP234 60000 T01890133 53007
Loading
Personal Weather Stations






























Interactive Weather Map New forecast layout! Learn more

10-Day Weather Forecast

Advertisements
Track Severe Weather on mobile